Аэропорт: Братск. Братск

ICAO: UIBB

METAR:
2018/07/22 20:00
UIBB 222000Z AUTO 06001MPS 3700 0300SE // NSC 05/05 Q1009 RMK QFE714/0952
METAR:
2018/07/22 18:37
TAF UIBB 221700Z 2218/2318 09003MPS 0700 FG FU SCT001 SCT016CB 
      TEMPO 2218/2305 3100 BR FU SCT016CB 
      BECMG 2305/2306 5000 FU SCT016CB